sensor_id;sensor_type;location;lat;lon;timestamp;P1;durP1;ratioP1;P2;durP2;ratioP2
50739;SDS011;36704;52.524;17.580;2024-03-02T00:01:07;89.75;;;37.65;;
50739;SDS011;36704;52.524;17.580;2024-03-02T00:11:50;94.57;;;38.65;;
50739;SDS011;36704;52.524;17.580;2024-03-02T00:17:17;109.50;;;39.70;;
50739;SDS011;36704;52.524;17.580;2024-03-02T00:23:15;100.55;;;38.83;;
50739;SDS011;36704;52.524;17.580;2024-03-02T00:28:37;100.50;;;40.22;;
50739;SDS011;36704;52.524;17.580;2024-03-02T00:34:00;100.13;;;39.92;;
50739;SDS011;36704;52.524;17.580;2024-03-02T00:39:26;103.82;;;40.03;;
50739;SDS011;36704;52.524;17.580;2024-03-02T00:44:51;88.85;;;36.80;;
50739;SDS011;36704;52.524;17.580;2024-03-02T00:50:16;100.00;;;37.63;;
50739;SDS011;36704;52.524;17.580;2024-03-02T00:55:51;103.60;;;39.67;;
50739;SDS011;36704;52.524;17.580;2024-03-02T01:07:37;105.63;;;36.33;;
50739;SDS011;36704;52.524;17.580;2024-03-02T01:13:06;103.53;;;37.67;;
50739;SDS011;36704;52.524;17.580;2024-03-02T01:18:30;95.50;;;36.63;;
50739;SDS011;36704;52.524;17.580;2024-03-02T01:23:54;98.47;;;36.70;;
50739;SDS011;36704;52.524;17.580;2024-03-02T01:29:18;98.67;;;37.77;;
50739;SDS011;36704;52.524;17.580;2024-03-02T01:34:41;109.38;;;38.63;;
50739;SDS011;36704;52.524;17.580;2024-03-02T01:40:04;96.32;;;35.05;;
50739;SDS011;36704;52.524;17.580;2024-03-02T01:45:29;98.55;;;39.25;;
50739;SDS011;36704;52.524;17.580;2024-03-02T01:50:50;98.15;;;35.33;;
50739;SDS011;36704;52.524;17.580;2024-03-02T01:56:11;98.68;;;36.97;;
50739;SDS011;36704;52.524;17.580;2024-03-02T02:01:34;96.05;;;37.35;;
50739;SDS011;36704;52.524;17.580;2024-03-02T02:06:55;90.75;;;33.25;;
50739;SDS011;36704;52.524;17.580;2024-03-02T02:12:17;100.28;;;35.38;;
50739;SDS011;36704;52.524;17.580;2024-03-02T02:17:38;94.70;;;36.75;;
50739;SDS011;36704;52.524;17.580;2024-03-02T02:23:02;105.03;;;36.70;;
50739;SDS011;36704;52.524;17.580;2024-03-02T02:28:25;97.00;;;37.92;;
50739;SDS011;36704;52.524;17.580;2024-03-02T02:39:09;88.60;;;34.42;;
50739;SDS011;36704;52.524;17.580;2024-03-02T02:44:33;86.50;;;34.75;;
50739;SDS011;36704;52.524;17.580;2024-03-02T02:49:55;80.63;;;33.60;;
50739;SDS011;36704;52.524;17.580;2024-03-02T02:55:21;86.30;;;34.75;;
50739;SDS011;36704;52.524;17.580;2024-03-02T03:00:42;87.13;;;31.98;;
50739;SDS011;36704;52.524;17.580;2024-03-02T03:06:03;78.18;;;34.08;;
50739;SDS011;36704;52.524;17.580;2024-03-02T03:11:24;80.97;;;32.60;;
50739;SDS011;36704;52.524;17.580;2024-03-02T03:16:47;93.55;;;36.45;;
50739;SDS011;36704;52.524;17.580;2024-03-02T03:22:09;85.85;;;32.70;;
50739;SDS011;36704;52.524;17.580;2024-03-02T03:27:31;76.80;;;32.28;;
50739;SDS011;36704;52.524;17.580;2024-03-02T03:32:55;81.32;;;32.00;;
50739;SDS011;36704;52.524;17.580;2024-03-02T03:38:16;80.50;;;31.90;;
50739;SDS011;36704;52.524;17.580;2024-03-02T03:43:42;81.22;;;32.38;;
50739;SDS011;36704;52.524;17.580;2024-03-02T03:49:03;76.82;;;30.38;;
50739;SDS011;36704;52.524;17.580;2024-03-02T03:54:24;73.00;;;31.38;;
50739;SDS011;36704;52.524;17.580;2024-03-02T03:59:45;85.25;;;31.98;;
50739;SDS011;36704;52.524;17.580;2024-03-02T04:10:32;74.93;;;31.90;;
50739;SDS011;36704;52.524;17.580;2024-03-02T04:15:53;86.00;;;32.15;;
50739;SDS011;36704;52.524;17.580;2024-03-02T04:21:14;70.27;;;30.13;;
50739;SDS011;36704;52.524;17.580;2024-03-02T04:26:35;80.43;;;32.10;;
50739;SDS011;36704;52.524;17.580;2024-03-02T04:31:56;72.80;;;31.52;;
50739;SDS011;36704;52.524;17.580;2024-03-02T04:37:18;83.83;;;33.03;;
50739;SDS011;36704;52.524;17.580;2024-03-02T04:42:43;68.30;;;28.35;;
50739;SDS011;36704;52.524;17.580;2024-03-02T04:48:54;68.03;;;27.33;;
50739;SDS011;36704;52.524;17.580;2024-03-02T04:54:48;77.53;;;30.85;;
50739;SDS011;36704;52.524;17.580;2024-03-02T05:00:29;76.72;;;29.55;;
50739;SDS011;36704;52.524;17.580;2024-03-02T05:06:03;72.50;;;29.13;;
50739;SDS011;36704;52.524;17.580;2024-03-02T05:11:44;73.82;;;30.48;;
50739;SDS011;36704;52.524;17.580;2024-03-02T05:17:57;67.85;;;29.00;;
50739;SDS011;36704;52.524;17.580;2024-03-02T05:24:15;73.47;;;29.15;;
50739;SDS011;36704;52.524;17.580;2024-03-02T05:29:48;71.78;;;28.20;;
50739;SDS011;36704;52.524;17.580;2024-03-02T05:35:32;66.38;;;30.25;;
50739;SDS011;36704;52.524;17.580;2024-03-02T05:40:56;67.10;;;28.65;;
50739;SDS011;36704;52.524;17.580;2024-03-02T05:46:17;65.90;;;28.95;;
50739;SDS011;36704;52.524;17.580;2024-03-02T05:51:50;72.30;;;27.70;;
50739;SDS011;36704;52.524;17.580;2024-03-02T05:57:29;75.15;;;28.10;;
50739;SDS011;36704;52.524;17.580;2024-03-02T06:03:39;66.20;;;27.90;;
50739;SDS011;36704;52.524;17.580;2024-03-02T06:09:26;66.22;;;29.08;;
50739;SDS011;36704;52.524;17.580;2024-03-02T06:14:48;70.35;;;30.60;;
50739;SDS011;36704;52.524;17.580;2024-03-02T06:20:15;87.73;;;34.80;;
50739;SDS011;36704;52.524;17.580;2024-03-02T06:25:55;101.70;;;38.78;;
50739;SDS011;36704;52.524;17.580;2024-03-02T06:31:37;77.43;;;34.00;;
50739;SDS011;36704;52.524;17.580;2024-03-02T06:37:09;67.22;;;30.15;;
50739;SDS011;36704;52.524;17.580;2024-03-02T06:42:35;68.75;;;29.98;;
50739;SDS011;36704;52.524;17.580;2024-03-02T06:48:10;80.80;;;31.35;;
50739;SDS011;36704;52.524;17.580;2024-03-02T06:53:41;84.95;;;40.63;;
50739;SDS011;36704;52.524;17.580;2024-03-02T06:59:20;69.72;;;32.25;;
50739;SDS011;36704;52.524;17.580;2024-03-02T07:04:58;65.55;;;30.25;;
50739;SDS011;36704;52.524;17.580;2024-03-02T07:10:29;56.90;;;28.67;;
50739;SDS011;36704;52.524;17.580;2024-03-02T07:16:04;74.03;;;32.28;;
50739;SDS011;36704;52.524;17.580;2024-03-02T07:21:44;61.22;;;27.80;;
50739;SDS011;36704;52.524;17.580;2024-03-02T07:27:23;62.78;;;28.52;;
50739;SDS011;36704;52.524;17.580;2024-03-02T07:32:53;72.65;;;32.22;;
50739;SDS011;36704;52.524;17.580;2024-03-02T07:38:17;76.00;;;32.13;;
50739;SDS011;36704;52.524;17.580;2024-03-02T07:43:59;61.90;;;28.30;;
50739;SDS011;36704;52.524;17.580;2024-03-02T07:49:22;71.65;;;30.60;;
50739;SDS011;36704;52.524;17.580;2024-03-02T07:54:43;57.15;;;27.92;;
50739;SDS011;36704;52.524;17.580;2024-03-02T08:00:05;59.38;;;30.05;;
50739;SDS011;36704;52.524;17.580;2024-03-02T08:05:33;52.88;;;26.30;;
50739;SDS011;36704;52.524;17.580;2024-03-02T08:10:57;57.72;;;29.60;;
50739;SDS011;36704;52.524;17.580;2024-03-02T08:16:39;58.25;;;28.15;;
50739;SDS011;36704;52.524;17.580;2024-03-02T08:22:17;58.75;;;26.85;;
50739;SDS011;36704;52.524;17.580;2024-03-02T08:28:13;57.83;;;29.85;;
50739;SDS011;36704;52.524;17.580;2024-03-02T08:33:37;54.35;;;31.65;;
50739;SDS011;36704;52.524;17.580;2024-03-02T08:39:02;53.60;;;28.15;;
50739;SDS011;36704;52.524;17.580;2024-03-02T08:44:48;53.10;;;28.52;;
50739;SDS011;36704;52.524;17.580;2024-03-02T08:50:17;56.17;;;31.45;;
50739;SDS011;36704;52.524;17.580;2024-03-02T08:55:41;60.08;;;36.20;;
50739;SDS011;36704;52.524;17.580;2024-03-02T09:01:06;59.50;;;31.70;;
50739;SDS011;36704;52.524;17.580;2024-03-02T09:06:29;52.92;;;31.30;;
50739;SDS011;36704;52.524;17.580;2024-03-02T09:11:52;54.28;;;30.25;;
50739;SDS011;36704;52.524;17.580;2024-03-02T09:17:16;59.67;;;30.42;;
50739;SDS011;36704;52.524;17.580;2024-03-02T09:22:38;49.58;;;25.13;;
50739;SDS011;36704;52.524;17.580;2024-03-02T09:27:59;51.75;;;24.60;;
50739;SDS011;36704;52.524;17.580;2024-03-02T09:33:21;49.72;;;25.70;;
50739;SDS011;36704;52.524;17.580;2024-03-02T09:38:51;48.40;;;28.95;;
50739;SDS011;36704;52.524;17.580;2024-03-02T09:44:27;50.47;;;30.70;;
50739;SDS011;36704;52.524;17.580;2024-03-02T09:50:13;46.08;;;26.38;;
50739;SDS011;36704;52.524;17.580;2024-03-02T09:55:35;48.03;;;29.83;;
50739;SDS011;36704;52.524;17.580;2024-03-02T10:00:56;43.33;;;23.80;;
50739;SDS011;36704;52.524;17.580;2024-03-02T10:11:49;50.50;;;28.38;;
50739;SDS011;36704;52.524;17.580;2024-03-02T10:17:11;44.95;;;31.17;;
50739;SDS011;36704;52.524;17.580;2024-03-02T10:22:35;47.55;;;28.35;;
50739;SDS011;36704;52.524;17.580;2024-03-02T10:27:57;46.95;;;26.88;;
50739;SDS011;36704;52.524;17.580;2024-03-02T10:33:23;53.67;;;37.00;;
50739;SDS011;36704;52.524;17.580;2024-03-02T10:38:51;43.92;;;23.20;;
50739;SDS011;36704;52.524;17.580;2024-03-02T10:44:15;45.70;;;32.92;;
50739;SDS011;36704;52.524;17.580;2024-03-02T10:49:39;48.73;;;34.57;;
50739;SDS011;36704;52.524;17.580;2024-03-02T10:55:06;47.03;;;28.33;;
50739;SDS011;36704;52.524;17.580;2024-03-02T11:00:31;47.70;;;30.92;;
50739;SDS011;36704;52.524;17.580;2024-03-02T11:05:55;45.53;;;28.63;;
50739;SDS011;36704;52.524;17.580;2024-03-02T11:11:21;41.30;;;27.27;;
50739;SDS011;36704;52.524;17.580;2024-03-02T11:16:49;51.35;;;28.50;;
50739;SDS011;36704;52.524;17.580;2024-03-02T11:22:25;50.15;;;31.63;;
50739;SDS011;36704;52.524;17.580;2024-03-02T11:33:11;43.08;;;28.15;;
50739;SDS011;36704;52.524;17.580;2024-03-02T11:38:33;44.75;;;29.23;;
50739;SDS011;36704;52.524;17.580;2024-03-02T11:43:55;46.17;;;29.48;;
50739;SDS011;36704;52.524;17.580;2024-03-02T11:49:37;41.90;;;27.83;;
50739;SDS011;36704;52.524;17.580;2024-03-02T11:54:59;46.15;;;28.00;;
50739;SDS011;36704;52.524;17.580;2024-03-02T12:00:28;48.95;;;30.52;;
50739;SDS011;36704;52.524;17.580;2024-03-02T12:05:53;42.30;;;28.75;;
50739;SDS011;36704;52.524;17.580;2024-03-02T12:11:15;39.97;;;26.13;;
50739;SDS011;36704;52.524;17.580;2024-03-02T12:16:38;42.42;;;28.48;;
50739;SDS011;36704;52.524;17.580;2024-03-02T12:22:03;38.97;;;25.67;;
50739;SDS011;36704;52.524;17.580;2024-03-02T12:27:26;42.90;;;30.75;;
50739;SDS011;36704;52.524;17.580;2024-03-02T12:38:10;44.63;;;31.08;;
50739;SDS011;36704;52.524;17.580;2024-03-02T12:43:33;43.47;;;25.88;;
50739;SDS011;36704;52.524;17.580;2024-03-02T12:48:56;44.13;;;30.63;;
50739;SDS011;36704;52.524;17.580;2024-03-02T12:54:17;41.00;;;27.67;;
50739;SDS011;36704;52.524;17.580;2024-03-02T13:05:00;46.78;;;27.25;;
50739;SDS011;36704;52.524;17.580;2024-03-02T13:10:22;51.03;;;28.60;;
50739;SDS011;36704;52.524;17.580;2024-03-02T13:15:44;46.97;;;31.88;;
50739;SDS011;36704;52.524;17.580;2024-03-02T13:21:08;41.88;;;28.48;;
50739;SDS011;36704;52.524;17.580;2024-03-02T13:26:29;41.58;;;26.33;;
50739;SDS011;36704;52.524;17.580;2024-03-02T13:31:52;41.38;;;25.90;;
50739;SDS011;36704;52.524;17.580;2024-03-02T13:42:34;41.13;;;28.30;;
50739;SDS011;36704;52.524;17.580;2024-03-02T13:47:57;36.65;;;24.30;;
50739;SDS011;36704;52.524;17.580;2024-03-02T13:53:20;50.67;;;27.83;;
50739;SDS011;36704;52.524;17.580;2024-03-02T13:58:43;48.65;;;31.80;;
50739;SDS011;36704;52.524;17.580;2024-03-02T14:04:11;45.28;;;28.90;;
50739;SDS011;36704;52.524;17.580;2024-03-02T14:09:42;44.30;;;25.48;;
50739;SDS011;36704;52.524;17.580;2024-03-02T14:15:06;48.13;;;26.85;;
50739;SDS011;36704;52.524;17.580;2024-03-02T14:20:32;46.42;;;27.58;;
50739;SDS011;36704;52.524;17.580;2024-03-02T14:25:55;54.03;;;29.52;;
50739;SDS011;36704;52.524;17.580;2024-03-02T14:31:20;51.60;;;30.55;;
50739;SDS011;36704;52.524;17.580;2024-03-02T14:36:41;52.08;;;31.02;;
50739;SDS011;36704;52.524;17.580;2024-03-02T14:42:04;54.80;;;30.60;;
50739;SDS011;36704;52.524;17.580;2024-03-02T14:47:27;71.13;;;40.17;;
50739;SDS011;36704;52.524;17.580;2024-03-02T14:52:56;62.83;;;31.08;;
50739;SDS011;36704;52.524;17.580;2024-03-02T14:58:19;107.30;;;40.55;;
50739;SDS011;36704;52.524;17.580;2024-03-02T15:03:43;78.00;;;39.63;;
50739;SDS011;36704;52.524;17.580;2024-03-02T15:14:26;89.28;;;41.55;;
50739;SDS011;36704;52.524;17.580;2024-03-02T15:19:50;74.47;;;39.58;;
50739;SDS011;36704;52.524;17.580;2024-03-02T15:25:17;68.25;;;32.75;;
50739;SDS011;36704;52.524;17.580;2024-03-02T15:30:38;79.35;;;39.17;;
50739;SDS011;36704;52.524;17.580;2024-03-02T15:36:00;77.32;;;33.45;;
50739;SDS011;36704;52.524;17.580;2024-03-02T15:41:22;96.70;;;42.95;;
50739;SDS011;36704;52.524;17.580;2024-03-02T15:46:46;84.63;;;36.10;;
50739;SDS011;36704;52.524;17.580;2024-03-02T15:57:29;66.57;;;29.70;;
50739;SDS011;36704;52.524;17.580;2024-03-02T16:02:51;62.25;;;28.63;;
50739;SDS011;36704;52.524;17.580;2024-03-02T16:08:12;67.32;;;29.75;;
50739;SDS011;36704;52.524;17.580;2024-03-02T16:13:39;87.53;;;38.65;;
50739;SDS011;36704;52.524;17.580;2024-03-02T16:19:00;73.77;;;33.30;;
50739;SDS011;36704;52.524;17.580;2024-03-02T16:24:34;76.88;;;34.72;;
50739;SDS011;36704;52.524;17.580;2024-03-02T16:29:56;69.75;;;34.35;;
50739;SDS011;36704;52.524;17.580;2024-03-02T16:35:19;84.38;;;36.67;;
50739;SDS011;36704;52.524;17.580;2024-03-02T16:40:40;76.80;;;36.88;;
50739;SDS011;36704;52.524;17.580;2024-03-02T16:46:02;65.72;;;33.58;;
50739;SDS011;36704;52.524;17.580;2024-03-02T16:51:26;73.80;;;33.80;;
50739;SDS011;36704;52.524;17.580;2024-03-02T17:02:19;75.35;;;36.42;;
50739;SDS011;36704;52.524;17.580;2024-03-02T17:07:50;75.03;;;32.72;;
50739;SDS011;36704;52.524;17.580;2024-03-02T17:13:19;68.20;;;34.25;;
50739;SDS011;36704;52.524;17.580;2024-03-02T17:19:21;69.07;;;31.60;;
50739;SDS011;36704;52.524;17.580;2024-03-02T17:24:49;73.10;;;31.08;;
50739;SDS011;36704;52.524;17.580;2024-03-02T17:30:12;84.35;;;36.05;;
50739;SDS011;36704;52.524;17.580;2024-03-02T17:40:56;80.60;;;35.37;;
50739;SDS011;36704;52.524;17.580;2024-03-02T17:51:39;103.37;;;41.43;;
50739;SDS011;36704;52.524;17.580;2024-03-02T18:07:45;65.65;;;29.85;;
50739;SDS011;36704;52.524;17.580;2024-03-02T18:13:06;70.83;;;29.30;;
50739;SDS011;36704;52.524;17.580;2024-03-02T18:18:27;80.00;;;32.15;;
50739;SDS011;36704;52.524;17.580;2024-03-02T18:23:49;99.05;;;38.50;;
50739;SDS011;36704;52.524;17.580;2024-03-02T18:29:10;68.83;;;31.87;;
50739;SDS011;36704;52.524;17.580;2024-03-02T18:34:31;70.57;;;32.42;;
50739;SDS011;36704;52.524;17.580;2024-03-02T18:39:55;71.32;;;32.50;;
50739;SDS011;36704;52.524;17.580;2024-03-02T18:45:16;61.95;;;30.08;;
50739;SDS011;36704;52.524;17.580;2024-03-02T18:50:37;76.80;;;30.43;;
50739;SDS011;36704;52.524;17.580;2024-03-02T18:55:58;80.38;;;33.38;;
50739;SDS011;36704;52.524;17.580;2024-03-02T19:01:20;67.78;;;30.20;;
50739;SDS011;36704;52.524;17.580;2024-03-02T19:12:02;69.20;;;29.45;;
50739;SDS011;36704;52.524;17.580;2024-03-02T19:22:46;72.47;;;31.33;;
50739;SDS011;36704;52.524;17.580;2024-03-02T19:28:09;87.32;;;33.15;;
50739;SDS011;36704;52.524;17.580;2024-03-02T19:33:30;81.43;;;33.17;;
50739;SDS011;36704;52.524;17.580;2024-03-02T19:38:53;78.90;;;32.25;;
50739;SDS011;36704;52.524;17.580;2024-03-02T19:44:14;104.82;;;40.22;;
50739;SDS011;36704;52.524;17.580;2024-03-02T19:49:38;84.97;;;32.88;;
50739;SDS011;36704;52.524;17.580;2024-03-02T19:54:59;88.53;;;32.45;;
50739;SDS011;36704;52.524;17.580;2024-03-02T20:00:22;82.93;;;33.88;;
50739;SDS011;36704;52.524;17.580;2024-03-02T20:05:43;86.03;;;32.80;;
50739;SDS011;36704;52.524;17.580;2024-03-02T20:11:04;79.70;;;33.60;;
50739;SDS011;36704;52.524;17.580;2024-03-02T20:16:25;109.70;;;41.27;;
50739;SDS011;36704;52.524;17.580;2024-03-02T20:21:46;93.03;;;36.80;;
50739;SDS011;36704;52.524;17.580;2024-03-02T20:27:08;116.43;;;39.17;;
50739;SDS011;36704;52.524;17.580;2024-03-02T20:32:29;108.95;;;41.70;;
50739;SDS011;36704;52.524;17.580;2024-03-02T20:37:50;89.63;;;35.83;;
50739;SDS011;36704;52.524;17.580;2024-03-02T20:43:11;81.63;;;33.73;;
50739;SDS011;36704;52.524;17.580;2024-03-02T20:53:55;80.40;;;32.60;;
50739;SDS011;36704;52.524;17.580;2024-03-02T20:59:17;80.45;;;32.60;;
50739;SDS011;36704;52.524;17.580;2024-03-02T21:04:39;93.75;;;34.90;;
50739;SDS011;36704;52.524;17.580;2024-03-02T21:10:03;96.78;;;35.63;;
50739;SDS011;36704;52.524;17.580;2024-03-02T21:15:25;83.20;;;34.42;;
50739;SDS011;36704;52.524;17.580;2024-03-02T21:20:47;102.22;;;35.00;;
50739;SDS011;36704;52.524;17.580;2024-03-02T21:26:08;92.43;;;35.17;;
50739;SDS011;36704;52.524;17.580;2024-03-02T21:31:29;92.28;;;34.83;;
50739;SDS011;36704;52.524;17.580;2024-03-02T21:36:50;88.68;;;35.08;;
50739;SDS011;36704;52.524;17.580;2024-03-02T21:42:12;92.85;;;34.50;;
50739;SDS011;36704;52.524;17.580;2024-03-02T21:47:34;95.80;;;36.28;;
50739;SDS011;36704;52.524;17.580;2024-03-02T21:52:54;103.57;;;35.80;;
50739;SDS011;36704;52.524;17.580;2024-03-02T22:03:37;109.05;;;38.05;;
50739;SDS011;36704;52.524;17.580;2024-03-02T22:08:59;121.40;;;39.17;;
50739;SDS011;36704;52.524;17.580;2024-03-02T22:14:20;101.87;;;35.37;;
50739;SDS011;36704;52.524;17.580;2024-03-02T22:19:41;103.65;;;36.95;;
50739;SDS011;36704;52.524;17.580;2024-03-02T22:25:03;99.00;;;35.83;;
50739;SDS011;36704;52.524;17.580;2024-03-02T22:30:25;100.63;;;36.05;;
50739;SDS011;36704;52.524;17.580;2024-03-02T22:35:48;97.90;;;34.92;;
50739;SDS011;36704;52.524;17.580;2024-03-02T22:41:09;96.05;;;35.55;;
50739;SDS011;36704;52.524;17.580;2024-03-02T22:46:30;91.18;;;35.30;;
50739;SDS011;36704;52.524;17.580;2024-03-02T22:51:51;90.70;;;36.78;;
50739;SDS011;36704;52.524;17.580;2024-03-02T22:57:13;104.18;;;38.20;;
50739;SDS011;36704;52.524;17.580;2024-03-02T23:02:38;101.88;;;35.38;;
50739;SDS011;36704;52.524;17.580;2024-03-02T23:07:59;112.70;;;37.60;;
50739;SDS011;36704;52.524;17.580;2024-03-02T23:13:20;99.22;;;36.60;;
50739;SDS011;36704;52.524;17.580;2024-03-02T23:18:42;91.25;;;36.75;;
50739;SDS011;36704;52.524;17.580;2024-03-02T23:24:05;90.00;;;35.05;;
50739;SDS011;36704;52.524;17.580;2024-03-02T23:29:26;112.07;;;36.88;;
50739;SDS011;36704;52.524;17.580;2024-03-02T23:34:47;99.03;;;37.60;;
50739;SDS011;36704;52.524;17.580;2024-03-02T23:40:09;102.38;;;36.50;;
50739;SDS011;36704;52.524;17.580;2024-03-02T23:45:36;103.15;;;38.30;;
50739;SDS011;36704;52.524;17.580;2024-03-02T23:50:57;100.38;;;36.95;;
50739;SDS011;36704;52.524;17.580;2024-03-02T23:56:18;99.18;;;37.03;;
